Enez Eussa 3 — FV5533 — position and weather

sailwx.info

Track history (hours):
 
Tides and Currents Weather Stations Pressure Air Temp Water Temp Dewpoint Dewpoint Depression Visibility Wind Speed Wind Dir Waves Ship Positions

Enez Eussa 3

Last reported at 2018-Feb-25 05:58 UTC. Time now 2018-Feb-25 06:10 UTC.
Position N 48°23' W 004°29'.

Length 45 m; draft 2.8 m.

Type: Passenger vessel. MMSI: 227003050.

Date/timePositionNaut miles runAvg speedWind from/ knotsBaromVisibWave heightAir tempDewpointWater temp
2018-Feb-25 05:58N 48°23' W 004°29'0 0.0
2018-Feb-25 05:28N 48°23' W 004°29'0 0.0
2018-Feb-25 04:58N 48°23' W 004°29'0 0.0
2018-Feb-25 04:28N 48°23' W 004°29'0 0.0
2018-Feb-25 03:58N 48°23' W 004°29'0 0.0
2018-Feb-25 03:28N 48°23' W 004°29'0 0.0
2018-Feb-25 02:58N 48°23' W 004°29'0 0.0
2018-Feb-25 02:28N 48°23' W 004°29'0 0.0
2018-Feb-25 01:58N 48°23' W 004°29'0 0.0
2018-Feb-25 01:28N 48°23' W 004°29'0 0.0
2018-Feb-25 00:58N 48°23' W 004°29'0 0.0
2018-Feb-25 00:28N 48°23' W 004°29'0 0.0
2018-Feb-24 23:58N 48°23' W 004°29'0 0.0
2018-Feb-24 23:28N 48°23' W 004°29'0 0.0
2018-Feb-24 22:58N 48°23' W 004°29'0 0.0
2018-Feb-24 22:28N 48°23' W 004°29'0 0.0
2018-Feb-24 21:58N 48°23' W 004°29'0 0.0
2018-Feb-24 21:28N 48°23' W 004°29'0 0.0
2018-Feb-24 20:58N 48°23' W 004°29'0 0.0
2018-Feb-24 20:28N 48°23' W 004°29'0 0.0
2018-Feb-24 19:58N 48°23' W 004°29'0 0.0
2018-Feb-24 19:28N 48°23' W 004°29'0 0.0
2018-Feb-24 18:58N 48°23' W 004°29'0 0.0
2018-Feb-24 18:28N 48°23' W 004°29'0 0.1
2018-Feb-24 18:01N 48°23' W 004°29'713.7
2018-Feb-24 17:31N 48°20' W 004°38'612.2
2018-Feb-24 17:01N 48°21' W 004°47'3 6.1
2018-Feb-24 16:30N 48°24' W 004°50'5 9.7
2018-Feb-24 16:00N 48°24' W 004°57'611.2
2018-Feb-24 15:30N 48°28' W 005°03'0 0.1
2018-Feb-24 15:00N 48°28' W 005°03'4 8.1
2018-Feb-24 14:30N 48°26' W 004°58'3 6.0
2018-Feb-24 14:00N 48°24' W 004°55'611.7
2018-Feb-24 13:30N 48°22' W 004°47'0 0.0
2018-Feb-24 13:00N 48°22' W 004°47'0 0.0
2018-Feb-24 12:30N 48°22' W 004°47'0 0.0
2018-Feb-24 12:00N 48°22' W 004°47'612.6
2018-Feb-24 11:30N 48°24' W 004°55'3 6.5
2018-Feb-24 11:01N 48°27' W 004°59'3 6.6
2018-Feb-24 10:30N 48°28' W 005°03'1 1.2
2018-Feb-24 10:01N 48°28' W 005°02'510.4
2018-Feb-24 09:30N 48°24' W 004°57'510.1
2018-Feb-24 09:00N 48°22' W 004°50'2 4.9
2018-Feb-24 08:30N 48°22' W 004°47'5 9.3
2018-Feb-24 08:00N 48°20' W 004°40'714.3
2018-Feb-24 07:30N 48°22' W 004°30'1 2.5
2018-Feb-24 07:00N 48°23' W 004°29'0 0.0
2018-Feb-24 06:30N 48°23' W 004°29'0 0.0
2018-Feb-24 06:00N 48°23' W 004°29'0 0.0
2018-Feb-24 05:30N 48°23' W 004°29'0 0.0
2018-Feb-24 05:00N 48°23' W 004°29'0 0.0
2018-Feb-24 04:30N 48°23' W 004°29'0 0.0
2018-Feb-24 04:00N 48°23' W 004°29'0 0.0
2018-Feb-24 03:30N 48°23' W 004°29'0 0.0
2018-Feb-24 03:00N 48°23' W 004°29'0 0.0
2018-Feb-24 02:30N 48°23' W 004°29'0 0.0
2018-Feb-24 02:00N 48°23' W 004°29'0 0.0
2018-Feb-24 01:30N 48°23' W 004°29'0 0.0
2018-Feb-24 01:01N 48°23' W 004°29'0 0.0
2018-Feb-24 00:31N 48°23' W 004°29'0 0.0
2018-Feb-24 00:00N 48°23' W 004°29'0 0.0
2018-Feb-23 23:30N 48°23' W 004°29'0 0.0
2018-Feb-23 23:00N 48°23' W 004°29'0 0.0
2018-Feb-23 22:30N 48°23' W 004°29'0 0.0
2018-Feb-23 22:00N 48°23' W 004°29'0 0.0
2018-Feb-23 21:30N 48°23' W 004°29'2 4.5
2018-Feb-23 21:01N 48°21' W 004°32'815.2
2018-Feb-23 20:31N 48°20' W 004°43'611.0
2018-Feb-23 20:00N 48°23' W 004°49'714.6
2018-Feb-23 19:31N 48°28' W 004°58'3 6.9
2018-Feb-23 19:01N 48°28' W 005°03'510.9
2018-Feb-23 18:30N 48°24' W 004°57'5 9.8
2018-Feb-23 18:00N 48°24' W 004°50'3 5.9
2018-Feb-23 17:30N 48°22' W 004°47'510.7
2018-Feb-23 17:01N 48°24' W 004°54'3 5.1
2018-Feb-23 16:31N 48°26' W 004°57'2 3.4
2018-Feb-23 16:00N 48°24' W 004°57'0 0.0
2018-Feb-23 15:30N 48°24' W 004°57'611.2
2018-Feb-23 15:01N 48°28' W 005°03'0 0.0
2018-Feb-23 14:31N 48°28' W 005°03'0 0.0
2018-Feb-23 14:00N 48°28' W 005°03'0 0.0
2018-Feb-23 13:30N 48°28' W 005°03'0 0.0
2018-Feb-23 13:01N 48°28' W 005°03'0 0.0
2018-Feb-23 12:31N 48°28' W 005°03'0 0.0
2018-Feb-23 12:01N 48°28' W 005°03'0 0.0
2018-Feb-23 11:31N 48°28' W 005°03'0 0.0
2018-Feb-23 11:01N 48°28' W 005°03'0 0.0
2018-Feb-23 10:31N 48°28' W 005°03'2 4.5
2018-Feb-23 10:00N 48°27' W 005°00'3 6.7
2018-Feb-23 09:31N 48°25' W 004°57'714.5
2018-Feb-23 09:01N 48°21' W 004°47'2 4.8
2018-Feb-23 08:31N 48°23' W 004°50'510.2
2018-Feb-23 08:00N 48°24' W 004°57'611.5
2018-Feb-23 07:30N 48°28' W 005°03'2 3.4
2018-Feb-23 07:00N 48°28' W 005°01'714.8
2018-Feb-23 06:31N 48°24' W 004°51'4 7.8
2018-Feb-23 06:01N 48°22' W 004°47'0 0.0
2018-Feb-23 05:31N 48°22' W 004°47'0 0.0
2018-Feb-23 05:00N 48°22' W 004°47'0 0.0
2018-Feb-23 04:30N 48°22' W 004°47'0 0.0
2018-Feb-23 04:01N 48°22' W 004°47'0 0.0
2018-Feb-23 03:30N 48°22' W 004°47'0 0.0
2018-Feb-23 03:01N 48°22' W 004°47'0 0.0
2018-Feb-23 02:31N 48°22' W 004°47'0 0.0
2018-Feb-23 02:01N 48°22' W 004°47'0 0.0
2018-Feb-23 01:30N 48°22' W 004°47'0 0.0
2018-Feb-23 01:01N 48°22' W 004°47'0 0.0
2018-Feb-23 00:31N 48°22' W 004°47'0 0.0
2018-Feb-23 00:00N 48°22' W 004°47'0 0.0
2018-Feb-22 23:31N 48°22' W 004°47'0 0.0
2018-Feb-22 23:00N 48°22' W 004°47'0 0.0
2018-Feb-22 22:31N 48°22' W 004°47'0 0.0
2018-Feb-22 22:01N 48°22' W 004°47'0 0.0
2018-Feb-22 21:31N 48°22' W 004°47'0 0.0
2018-Feb-22 21:01N 48°22' W 004°47'0 0.0
2018-Feb-22 20:31N 48°22' W 004°47'0 0.0
2018-Feb-22 20:00N 48°22' W 004°47'0 0.0
2018-Feb-22 19:31N 48°22' W 004°47'0 0.0
2018-Feb-22 19:01N 48°22' W 004°47'0 0.0
2018-Feb-22 18:31N 48°22' W 004°47'0 0.0
2018-Feb-22 18:01N 48°22' W 004°47'0 0.0
2018-Feb-22 17:31N 48°22' W 004°47'0 0.0
2018-Feb-22 17:00N 48°22' W 004°47'3 6.2
2018-Feb-22 16:30N 48°24' W 004°50'5 9.4
2018-Feb-22 16:00N 48°24' W 004°57'610.3
2018-Feb-22 15:27N 48°28' W 005°03'0 0.0
2018-Feb-22 15:00N 48°28' W 005°03'611.2
2018-Feb-22 14:31N 48°24' W 004°57'0 0.2
2018-Feb-22 14:00N 48°24' W 004°57'0 0.0
2018-Feb-22 13:31N 48°24' W 004°57'0 0.0
2018-Feb-22 13:01N 48°24' W 004°57'4 7.1
2018-Feb-22 12:30N 48°27' W 005°00'2 4.6
2018-Feb-22 12:00N 48°28' W 005°03'0 0.0
2018-Feb-22 11:30N 48°28' W 005°03'0 0.0
2018-Feb-22 11:00N 48°28' W 005°03'0 0.0
2018-Feb-22 10:30N 48°28' W 005°03'1 1.3
2018-Feb-22 10:01N 48°28' W 005°02'510.1
2018-Feb-22 09:30N 48°24' W 004°57'510.7
2018-Feb-22 09:00N 48°23' W 004°50'2 4.9
2018-Feb-22 08:30N 48°22' W 004°47'511.0
2018-Feb-22 08:01N 48°18' W 004°40'714.5
2018-Feb-22 07:31N 48°22' W 004°30'1 2.9
2018-Feb-22 07:01N 48°23' W 004°29'0 0.0
2018-Feb-22 06:30N 48°23' W 004°29'0 0.0
2018-Feb-22 06:00N 48°23' W 004°29'0 0.0
2018-Feb-22 05:31N 48°23' W 004°29'0 0.0
2018-Feb-22 05:01N 48°23' W 004°29'0 0.0
2018-Feb-22 04:31N 48°23' W 004°29'0 0.0
2018-Feb-22 04:00N 48°23' W 004°29'0 0.0
2018-Feb-22 03:31N 48°23' W 004°29'0 0.0
2018-Feb-22 03:00N 48°23' W 004°29'0 0.0
2018-Feb-22 02:31N 48°23' W 004°29'0 0.0
2018-Feb-22 02:01N 48°23' W 004°29'0 0.0
2018-Feb-22 01:31N 48°23' W 004°29'0 0.0
2018-Feb-22 01:00N 48°23' W 004°29'0 0.0
2018-Feb-22 00:31N 48°23' W 004°29'0 0.0
2018-Feb-22 00:01N 48°23' W 004°29'0 0.0
2018-Feb-21 23:30N 48°23' W 004°29'0 0.0
2018-Feb-21 23:01N 48°23' W 004°29'0 0.0
2018-Feb-21 22:30N 48°23' W 004°29'0 0.0
2018-Feb-21 22:00N 48°23' W 004°29'0 0.0
2018-Feb-21 21:31N 48°23' W 004°29'0 0.0
2018-Feb-21 21:01N 48°23' W 004°29'0 0.0
2018-Feb-21 20:30N 48°23' W 004°29'0 0.0
2018-Feb-21 20:00N 48°23' W 004°29'0 0.0
2018-Feb-21 19:30N 48°23' W 004°29'0 0.0
2018-Feb-21 19:00N 48°23' W 004°29'0 0.0
2018-Feb-21 18:31N 48°23' W 004°29'0 0.0
2018-Feb-21 18:01N 48°23' W 004°29'0 0.0
2018-Feb-21 17:31N 48°23' W 004°29'0 0.0
2018-Feb-21 17:01N 48°23' W 004°29'0 0.0
2018-Feb-21 16:31N 48°23' W 004°29'0 0.0
2018-Feb-21 16:01N 48°23' W 004°29'0 0.0
2018-Feb-21 15:30N 48°23' W 004°29'0 0.0
2018-Feb-21 15:00N 48°23' W 004°29'0 0.0
2018-Feb-21 14:31N 48°23' W 004°29'0 0.0
2018-Feb-21 14:01N 48°23' W 004°29'0 0.0
2018-Feb-21 13:31N 48°23' W 004°29'3 5.5
2018-Feb-21 13:01N 48°21' W 004°33'714.1
2018-Feb-21 12:30N 48°20' W 004°43'3 6.7
2018-Feb-21 12:01N 48°22' W 004°47'713.1
2018-Feb-21 11:31N 48°24' W 004°56'3 6.4
2018-Feb-21 11:00N 48°27' W 004°59'3 6.1
2018-Feb-21 10:30N 48°28' W 005°03'1 1.8
2018-Feb-21 10:01N 48°28' W 005°02'510.0
2018-Feb-21 09:30N 48°24' W 004°57'511.0
2018-Feb-21 09:00N 48°23' W 004°49'2 4.5
2018-Feb-21 08:30N 48°22' W 004°47'4 8.0
2018-Feb-21 08:00N 48°20' W 004°42'815.2
2018-Feb-21 07:31N 48°22' W 004°31'2 3.1
2018-Feb-21 07:00N 48°23' W 004°29'0 0.0
2018-Feb-21 06:31N 48°23' W 004°29'0 0.0
2018-Feb-21 06:00N 48°23' W 004°29'0 0.0
2018-Feb-21 05:30N 48°23' W 004°29'0 0.0
2018-Feb-21 05:00N 48°23' W 004°29'0 0.0
2018-Feb-21 04:30N 48°23' W 004°29'0 0.0
2018-Feb-21 04:00N 48°23' W 004°29'0 0.0
2018-Feb-21 03:30N 48°23' W 004°29'0 0.0
2018-Feb-21 03:00N 48°23' W 004°29'0 0.0
2018-Feb-21 02:30N 48°23' W 004°29'0 0.0
2018-Feb-21 02:00N 48°23' W 004°29'0 0.0
2018-Feb-21 01:30N 48°23' W 004°29'0 0.0
2018-Feb-21 01:01N 48°23' W 004°29'0 0.0
2018-Feb-21 00:31N 48°23' W 004°29'0 0.0
2018-Feb-21 00:00N 48°23' W 004°29'0 0.0
2018-Feb-20 23:30N 48°23' W 004°29'0 0.0
2018-Feb-20 23:00N 48°23' W 004°29'0 0.0
2018-Feb-20 22:30N 48°23' W 004°29'0 0.0
2018-Feb-20 22:00N 48°23' W 004°29'0 0.0
2018-Feb-20 21:30N 48°23' W 004°29'0 0.0
2018-Feb-20 21:00N 48°23' W 004°29'0 0.0
2018-Feb-20 20:30N 48°23' W 004°29'0 0.0
2018-Feb-20 20:00N 48°23' W 004°29'0 0.0
2018-Feb-20 19:30N 48°23' W 004°29'0 0.0
2018-Feb-20 19:00N 48°23' W 004°29'0 0.0
2018-Feb-20 18:30N 48°23' W 004°29'0 0.0
2018-Feb-20 18:01N 48°23' W 004°29'713.9
2018-Feb-20 17:30N 48°20' W 004°39'611.9
2018-Feb-20 17:01N 48°21' W 004°47'4 7.7
2018-Feb-20 16:31N 48°24' W 004°51'4 8.2
2018-Feb-20 16:00N 48°24' W 004°57'610.8
2018-Feb-20 15:29N 48°28' W 005°03'0 0.0
2018-Feb-20 15:00N 48°28' W 005°03'0 0.0
2018-Feb-20 14:29N 48°28' W 005°03'0 0.0
2018-Feb-20 13:57N 48°28' W 005°03'0 0.0
2018-Feb-20 13:29N 48°28' W 005°03'0 0.0
2018-Feb-20 12:55N 48°28' W 005°03'0 0.0
2018-Feb-20 12:30N 48°28' W 005°03'0 0.0
2018-Feb-20 12:00N 48°28' W 005°03'0 0.0
2018-Feb-20 11:29N 48°28' W 005°03'0 0.0
2018-Feb-20 10:51N 48°28' W 005°03'0 0.0
2018-Feb-20 10:30N 48°28' W 005°03'2 3.4
2018-Feb-20 10:00N 48°28' W 005°01'4 8.3
2018-Feb-20 09:29N 48°24' W 004°57'510.7
2018-Feb-20 09:00N 48°23' W 004°50'3 5.2
2018-Feb-20 08:31N 48°22' W 004°47'4 7.3
2018-Feb-20 08:00N 48°20' W 004°42'815.4
2018-Feb-20 07:31N 48°21' W 004°31'2 3.8
2018-Feb-20 07:00N 48°23' W 004°29'0 0.0
2018-Feb-20 06:30N 48°23' W 004°29'0 0.0
2018-Feb-20 06:00N 48°23' W 004°29'0 0.0
2018-Feb-20 05:30N 48°23' W 004°29'0 0.0
2018-Feb-20 05:00N 48°23' W 004°29'0 0.0
2018-Feb-20 04:30N 48°23' W 004°29'0 0.0
2018-Feb-20 04:01N 48°23' W 004°29'0 0.0
2018-Feb-20 03:30N 48°23' W 004°29'0 0.0
2018-Feb-20 03:00N 48°23' W 004°29'0 0.0
2018-Feb-20 02:30N 48°23' W 004°29'0 0.0
2018-Feb-20 02:00N 48°23' W 004°29'0 0.0
2018-Feb-20 01:30N 48°23' W 004°29'0 0.0
2018-Feb-20 01:00N 48°23' W 004°29'0 0.0
2018-Feb-20 00:31N 48°23' W 004°29'0 0.0
2018-Feb-20 00:01N 48°23' W 004°29'0 0.0
2018-Feb-19 23:30N 48°23' W 004°29'0 0.0
2018-Feb-19 23:01N 48°23' W 004°29'0 0.0
2018-Feb-19 22:31N 48°23' W 004°29'0 0.0
2018-Feb-19 22:00N 48°23' W 004°29'0 0.0
2018-Feb-19 21:30N 48°23' W 004°29'0 0.0
2018-Feb-19 21:01N 48°23' W 004°29'0 0.0
2018-Feb-19 20:31N 48°23' W 004°29'0 0.0
2018-Feb-19 20:00N 48°23' W 004°29'0 0.0
2018-Feb-19 19:31N 48°23' W 004°29'0 0.0
2018-Feb-19 19:00N 48°23' W 004°29'0 0.0
2018-Feb-19 18:30N 48°23' W 004°29'0 0.0
2018-Feb-19 18:00N 48°23' W 004°29'612.1
2018-Feb-19 17:30N 48°20' W 004°37'713.4
2018-Feb-19 17:00N 48°21' W 004°47'4 7.6
2018-Feb-19 16:30N 48°24' W 004°50'5 9.2
2018-Feb-19 16:00N 48°24' W 004°57'611.2
2018-Feb-19 15:30N 48°28' W 005°03'0 0.0
2018-Feb-19 14:59N 48°28' W 005°03'0 0.0
2018-Feb-19 14:31N 48°28' W 005°03'0 0.0
2018-Feb-19 14:00N 48°28' W 005°03'0 0.0
2018-Feb-19 13:30N 48°28' W 005°03'0 0.0
2018-Feb-19 13:00N 48°28' W 005°03'0 0.0
2018-Feb-19 12:30N 48°28' W 005°03'0 0.0
2018-Feb-19 11:59N 48°28' W 005°03'0 0.0
2018-Feb-19 11:30N 48°28' W 005°03'0 0.0
2018-Feb-19 11:00N 48°28' W 005°03'0 0.0
2018-Feb-19 10:30N 48°28' W 005°03'1 2.5
2018-Feb-19 10:00N 48°28' W 005°01'5 9.7
2018-Feb-19 09:31N 48°24' W 004°57'510.5
2018-Feb-19 09:00N 48°23' W 004°50'2 4.9
2018-Feb-19 08:30N 48°22' W 004°47'4 7.3
2018-Feb-19 08:00N 48°20' W 004°42'816.5
2018-Feb-19 07:30N 48°22' W 004°30'1 2.7
2018-Feb-19 07:01N 48°23' W 004°29'0 0.0
2018-Feb-19 06:30N 48°23' W 004°29'0 0.0
2018-Feb-19 06:01N 48°23' W 004°29'0 0.0
2018-Feb-19 05:31N 48°23' W 004°29'0 0.0
2018-Feb-19 05:01N 48°23' W 004°29'0 0.0
2018-Feb-19 04:30N 48°23' W 004°29'0 0.0
2018-Feb-19 04:00N 48°23' W 004°29'0 0.0
2018-Feb-19 03:30N 48°23' W 004°29'0 0.0
2018-Feb-19 03:00N 48°23' W 004°29'0 0.0
2018-Feb-19 02:30N 48°23' W 004°29'0 0.0
2018-Feb-19 02:00N 48°23' W 004°29'0 0.0
2018-Feb-19 01:30N 48°23' W 004°29'0 0.0
2018-Feb-19 01:00N 48°23' W 004°29'0 0.0
2018-Feb-19 00:30N 48°23' W 004°29'0 0.0
2018-Feb-19 00:00N 48°23' W 004°29'0 0.0
2018-Feb-18 23:30N 48°23' W 004°29'0 0.0
2018-Feb-18 23:00N 48°23' W 004°29'0 0.0
2018-Feb-18 22:30N 48°23' W 004°29'0 0.0
2018-Feb-18 22:00N 48°23' W 004°29'0 0.0
2018-Feb-18 21:30N 48°23' W 004°29'0 0.0
2018-Feb-18 21:00N 48°23' W 004°29'0 0.0
2018-Feb-18 20:30N 48°23' W 004°29'0 0.0
2018-Feb-18 20:00N 48°23' W 004°29'0 0.0
2018-Feb-18 19:30N 48°23' W 004°29'0 0.0
2018-Feb-18 19:00N 48°23' W 004°29'4 8.5
2018-Feb-18 18:31N 48°21' W 004°35'815.4
2018-Feb-18 18:00N 48°19' W 004°46'4 8.2
2018-Feb-18 17:30N 48°23' W 004°49'611.5
2018-Feb-18 17:00N 48°24' W 004°57'611.1
2018-Feb-18 16:30N 48°28' W 005°03'1 1.5
2018-Feb-18 16:00N 48°28' W 005°02'510.1
2018-Feb-18 15:30N 48°24' W 004°57'612.8
2018-Feb-18 15:00N 48°22' W 004°48'1 2.2
2018-Feb-18 14:30N 48°22' W 004°47'0 0.0
2018-Feb-18 14:00N 48°22' W 004°47'0 0.0
2018-Feb-18 13:30N 48°22' W 004°47'0 0.0
2018-Feb-18 13:01N 48°22' W 004°47'0 0.0
2018-Feb-18 12:30N 48°22' W 004°47'0 0.0
2018-Feb-18 12:00N 48°22' W 004°47'2 4.2
2018-Feb-18 11:30N 48°23' W 004°49'611.6
2018-Feb-18 11:00N 48°24' W 004°58'510.8
2018-Feb-18 10:30N 48°28' W 005°03'0 0.3
2018-Feb-18 10:00N 48°28' W 005°03'510.9
2018-Feb-18 09:30N 48°24' W 004°57'510.6
2018-Feb-18 09:00N 48°23' W 004°50'3 4.9
2018-Feb-18 08:30N 48°22' W 004°47'5 9.4
2018-Feb-18 08:01N 48°19' W 004°41'815.0
2018-Feb-18 07:30N 48°21' W 004°31'2 4.1
2018-Feb-18 07:00N 48°23' W 004°29'0 0.0
2018-Feb-18 06:30N 48°23' W 004°29'0 0.0
2018-Feb-18 06:00N 48°23' W 004°29'0 0.0
2018-Feb-18 05:30N 48°23' W 004°29'0 0.0
2018-Feb-18 05:00N 48°23' W 004°29'0 0.0
2018-Feb-18 04:30N 48°23' W 004°29'0 0.0
2018-Feb-18 04:00N 48°23' W 004°29'0 0.0
2018-Feb-18 03:31N 48°23' W 004°29'0 0.0
2018-Feb-18 03:00N 48°23' W 004°29'0 0.0
2018-Feb-18 02:30N 48°23' W 004°29'0 0.0
2018-Feb-18 02:00N 48°23' W 004°29'0 0.0
2018-Feb-18 01:30N 48°23' W 004°29'0 0.0
2018-Feb-18 01:01N 48°23' W 004°29'0 0.0
2018-Feb-18 00:30N 48°23' W 004°29'0 0.0
2018-Feb-18 00:01N 48°23' W 004°29'0 0.0
2018-Feb-17 23:30N 48°23' W 004°29'0 0.0
2018-Feb-17 23:00N 48°23' W 004°29'0 0.0
2018-Feb-17 22:30N 48°23' W 004°29'0 0.0
2018-Feb-17 22:01N 48°23' W 004°29'0 0.0
2018-Feb-17 21:30N 48°23' W 004°29'0 0.0
2018-Feb-17 21:00N 48°23' W 004°29'0 0.0
2018-Feb-17 20:31N 48°23' W 004°29'0 0.0
2018-Feb-17 20:00N 48°23' W 004°29'0 0.0
2018-Feb-17 19:31N 48°23' W 004°29'0 0.0
2018-Feb-17 19:00N 48°23' W 004°29'0 0.0
2018-Feb-17 18:30N 48°23' W 004°29'0 0.0
2018-Feb-17 18:00N 48°23' W 004°29'3 6.8
2018-Feb-17 17:31N 48°21' W 004°33'815.6
2018-Feb-17 17:01N 48°19' W 004°45'4 7.6
2018-Feb-17 16:30N 48°22' W 004°49'611.9
2018-Feb-17 16:00N 48°24' W 004°57'611.3
2018-Feb-17 15:31N 48°28' W 005°03'0 0.0
2018-Feb-17 15:00N 48°28' W 005°03'3 7.1
2018-Feb-17 14:30N 48°27' W 004°59'3 5.7
2018-Feb-17 14:01N 48°25' W 004°56'713.1
2018-Feb-17 13:30N 48°22' W 004°47'0 0.0
2018-Feb-17 13:00N 48°22' W 004°47'0 0.0
2018-Feb-17 12:31N 48°22' W 004°47'0 0.0
2018-Feb-17 12:00N 48°22' W 004°47'611.6
2018-Feb-17 11:31N 48°24' W 004°55'4 8.3
2018-Feb-17 11:00N 48°27' W 004°59'3 5.3
2018-Feb-17 10:28N 48°28' W 005°03'0 0.6
2018-Feb-17 10:00N 48°28' W 005°03'510.7
2018-Feb-17 09:30N 48°24' W 004°57'510.4
2018-Feb-17 09:00N 48°23' W 004°50'3 4.8
2018-Feb-17 08:29N 48°22' W 004°47'4 7.7
2018-Feb-17 08:01N 48°20' W 004°42'816.4
2018-Feb-17 07:31N 48°22' W 004°30'1 2.9
2018-Feb-17 07:00N 48°23' W 004°29'0 0.0
2018-Feb-17 06:30N 48°23' W 004°29'0 0.0
2018-Feb-17 06:00N 48°23' W 004°29'0 0.0
2018-Feb-17 05:31N 48°23' W 004°29'0 0.0
2018-Feb-17 05:00N 48°23' W 004°29'0 0.0
2018-Feb-17 04:30N 48°23' W 004°29'0 0.0
2018-Feb-17 04:00N 48°23' W 004°29'0 0.0
2018-Feb-17 03:30N 48°23' W 004°29'0 0.0
2018-Feb-17 03:00N 48°23' W 004°29'0 0.0
2018-Feb-17 02:30N 48°23' W 004°29'0 0.0
2018-Feb-17 02:00N 48°23' W 004°29'0 0.0
2018-Feb-17 01:30N 48°23' W 004°29'0 0.0
2018-Feb-17 01:00N 48°23' W 004°29'0 0.0
2018-Feb-17 00:30N 48°23' W 004°29'0 0.0
2018-Feb-17 00:00N 48°23' W 004°29'0 0.0
2018-Feb-16 23:31N 48°23' W 004°29'0 0.0
2018-Feb-16 23:00N 48°23' W 004°29'0 0.0
2018-Feb-16 22:31N 48°23' W 004°29'0 0.0
2018-Feb-16 22:00N 48°23' W 004°29'0 0.0
2018-Feb-16 21:30N 48°23' W 004°29'0 0.0
2018-Feb-16 21:00N 48°23' W 004°29'0 0.0
2018-Feb-16 20:30N 48°23' W 004°29'0 0.0
2018-Feb-16 20:00N 48°23' W 004°29'0 0.0
2018-Feb-16 19:30N 48°23' W 004°29'0 0.0
2018-Feb-16 19:00N 48°23' W 004°29'4 7.7
2018-Feb-16 18:31N 48°21' W 004°34'713.9
2018-Feb-16 18:01N 48°19' W 004°44'814.8
2018-Feb-16 17:30N 48°25' W 004°52'714.5
2018-Feb-16 17:01N 48°28' W 005°02'1 2.9
2018-Feb-16 16:30N 48°27' W 004°60'4 7.3
2018-Feb-16 16:00N 48°25' W 004°56'713.7
2018-Feb-16 15:31N 48°22' W 004°47'2 4.3
2018-Feb-16 15:00N 48°22' W 004°50'510.6
2018-Feb-16 14:30N 48°24' W 004°57'611.1
2018-Feb-16 14:00N 48°28' W 005°03'0 0.2
2018-Feb-16 13:31N 48°28' W 005°03'0 0.0
2018-Feb-16 13:00N 48°28' W 005°03'0 0.0
2018-Feb-16 12:30N 48°28' W 005°03'0 0.0
2018-Feb-16 12:00N 48°28' W 005°03'0 0.0
2018-Feb-16 11:30N 48°28' W 005°03'0 0.0
2018-Feb-16 11:00N 48°28' W 005°03'0 0.0
2018-Feb-16 10:30N 48°28' W 005°03'2 4.4
2018-Feb-16 10:00N 48°27' W 005°00'5 9.1
2018-Feb-16 09:31N 48°24' W 004°55'612.3
2018-Feb-16 09:01N 48°22' W 004°47'4 8.4
2018-Feb-16 08:30N 48°24' W 004°52'4 7.5
2018-Feb-16 08:01N 48°25' W 004°57'510.3
2018-Feb-16 07:31N 48°28' W 005°03'0 0.0
2018-Feb-16 07:01N 48°28' W 005°03'714.0
2018-Feb-16 06:30N 48°26' W 004°53'713.1
2018-Feb-16 06:01N 48°21' W 004°47'612.8
2018-Feb-16 05:31N 48°20' W 004°38'713.2
2018-Feb-16 05:00N 48°23' W 004°29'0 0.0
2018-Feb-16 04:30N 48°23' W 004°29'0 0.0
2018-Feb-16 04:00N 48°23' W 004°29'0 0.0
2018-Feb-16 03:30N 48°23' W 004°29'0 0.0
2018-Feb-16 03:01N 48°23' W 004°29'0 0.0
2018-Feb-16 02:30N 48°23' W 004°29'0 0.0
2018-Feb-16 02:00N 48°23' W 004°29'0 0.0
2018-Feb-16 01:30N 48°23' W 004°29'0 0.0
2018-Feb-16 01:01N 48°23' W 004°29'0 0.0
2018-Feb-16 00:31N 48°23' W 004°29'0 0.0
2018-Feb-16 00:00N 48°23' W 004°29'0 0.0
2018-Feb-15 23:30N 48°23' W 004°29'0 0.0
2018-Feb-15 23:00N 48°23' W 004°29'0 0.0
2018-Feb-15 22:31N 48°23' W 004°29'0 0.0
2018-Feb-15 22:00N 48°23' W 004°29'0 0.0
2018-Feb-15 21:30N 48°23' W 004°29'0 0.0
2018-Feb-15 21:00N 48°23' W 004°29'0 0.0
2018-Feb-15 20:30N 48°23' W 004°29'0 0.0
2018-Feb-15 20:00N 48°23' W 004°29'0 0.0
2018-Feb-15 19:31N 48°23' W 004°29'0 0.0
2018-Feb-15 19:01N 48°23' W 004°29'0 0.0
2018-Feb-15 18:30N 48°23' W 004°29'2 4.0
2018-Feb-15 18:01N 48°21' W 004°31'713.4
2018-Feb-15 17:30N 48°20' W 004°41'4 8.6
2018-Feb-15 17:00N 48°22' W 004°47'510.9
2018-Feb-15 16:30N 48°24' W 004°54'1 3.0
2018-Feb-15 16:00N 48°24' W 004°56'612.3
2018-Feb-15 15:30N 48°28' W 005°03'0 0.2
2018-Feb-15 15:00N 48°28' W 005°03'0 0.0
2018-Feb-15 14:30N 48°28' W 005°03'0 0.0
2018-Feb-15 14:00N 48°28' W 005°03'0 0.0
2018-Feb-15 13:27N 48°28' W 005°03'0 0.3
2018-Feb-15 13:00N 48°28' W 005°03'0 0.0
2018-Feb-15 12:30N 48°28' W 005°03'0 0.0
2018-Feb-15 11:56N 48°28' W 005°03'0 0.0
2018-Feb-15 11:28N 48°28' W 005°03'0 0.0
2018-Feb-15 11:00N 48°28' W 005°03'0 0.0
2018-Feb-15 10:22N 48°28' W 005°03'410.0
2018-Feb-15 10:00N 48°26' W 004°59'2 4.3
2018-Feb-15 09:30N 48°24' W 004°58'510.9
2018-Feb-15 09:00N 48°23' W 004°50'3 4.8
2018-Feb-15 08:28N 48°22' W 004°47'4 8.2
2018-Feb-15 08:00N 48°20' W 004°42'816.2
2018-Feb-15 07:30N 48°22' W 004°30'1 2.6
2018-Feb-15 07:00N 48°23' W 004°29'0 0.0
2018-Feb-15 06:30N 48°23' W 004°29'0 0.0
2018-Feb-15 06:00N 48°23' W 004°29'  
Track history (hours):
 
Tides and Currents Weather Stations Pressure Air Temp Water Temp Dewpoint Dewpoint Depression Visibility Wind Speed Wind Dir Waves Ship Positions

Enez Eussa 3

Last reported at 2018-Feb-25 05:58 UTC. Time now 2018-Feb-25 06:10 UTC.
Position N 48°23' W 004°29'.

Length 45 m; draft 2.8 m.

Type: Passenger vessel. MMSI: 227003050.

Date/timePositionNaut miles runAvg speedWind from/ knotsBaromVisibWave heightAir tempDewpointWater temp
2018-Feb-25 05:58N 48°23' W 004°29'0 0.0
2018-Feb-25 05:28N 48°23' W 004°29'0 0.0
2018-Feb-25 04:58N 48°23' W 004°29'0 0.0
2018-Feb-25 04:28N 48°23' W 004°29'0 0.0
2018-Feb-25 03:58N 48°23' W 004°29'0 0.0
2018-Feb-25 03:28N 48°23' W 004°29'0 0.0
2018-Feb-25 02:58N 48°23' W 004°29'0 0.0
2018-Feb-25 02:28N 48°23' W 004°29'0 0.0
2018-Feb-25 01:58N 48°23' W 004°29'0 0.0
2018-Feb-25 01:28N 48°23' W 004°29'0 0.0
2018-Feb-25 00:58N 48°23' W 004°29'0 0.0
2018-Feb-25 00:28N 48°23' W 004°29'0 0.0
2018-Feb-24 23:58N 48°23' W 004°29'0 0.0
2018-Feb-24 23:28N 48°23' W 004°29'0 0.0
2018-Feb-24 22:58N 48°23' W 004°29'0 0.0
2018-Feb-24 22:28N 48°23' W 004°29'0 0.0
2018-Feb-24 21:58N 48°23' W 004°29'0 0.0
2018-Feb-24 21:28N 48°23' W 004°29'0 0.0
2018-Feb-24 20:58N 48°23' W 004°29'0 0.0
2018-Feb-24 20:28N 48°23' W 004°29'0 0.0
2018-Feb-24 19:58N 48°23' W 004°29'0 0.0
2018-Feb-24 19:28N 48°23' W 004°29'0 0.0
2018-Feb-24 18:58N 48°23' W 004°29'0 0.0
2018-Feb-24 18:28N 48°23' W 004°29'0 0.1
2018-Feb-24 18:01N 48°23' W 004°29'713.7
2018-Feb-24 17:31N 48°20' W 004°38'612.2
2018-Feb-24 17:01N 48°21' W 004°47'3 6.1
2018-Feb-24 16:30N 48°24' W 004°50'5 9.7
2018-Feb-24 16:00N 48°24' W 004°57'611.2
2018-Feb-24 15:30N 48°28' W 005°03'0 0.1
2018-Feb-24 15:00N 48°28' W 005°03'4 8.1
2018-Feb-24 14:30N 48°26' W 004°58'3 6.0
2018-Feb-24 14:00N 48°24' W 004°55'611.7
2018-Feb-24 13:30N 48°22' W 004°47'0 0.0
2018-Feb-24 13:00N 48°22' W 004°47'0 0.0
2018-Feb-24 12:30N 48°22' W 004°47'0 0.0
2018-Feb-24 12:00N 48°22' W 004°47'612.6
2018-Feb-24 11:30N 48°24' W 004°55'3 6.5
2018-Feb-24 11:01N 48°27' W 004°59'3 6.6
2018-Feb-24 10:30N 48°28' W 005°03'1 1.2
2018-Feb-24 10:01N 48°28' W 005°02'510.4
2018-Feb-24 09:30N 48°24' W 004°57'510.1
2018-Feb-24 09:00N 48°22' W 004°50'2 4.9
2018-Feb-24 08:30N 48°22' W 004°47'5 9.3
2018-Feb-24 08:00N 48°20' W 004°40'714.3
2018-Feb-24 07:30N 48°22' W 004°30'1 2.5
2018-Feb-24 07:00N 48°23' W 004°29'0 0.0
2018-Feb-24 06:30N 48°23' W 004°29'0 0.0
2018-Feb-24 06:00N 48°23' W 004°29'0 0.0
2018-Feb-24 05:30N 48°23' W 004°29'0 0.0
2018-Feb-24 05:00N 48°23' W 004°29'0 0.0
2018-Feb-24 04:30N 48°23' W 004°29'0 0.0
2018-Feb-24 04:00N 48°23' W 004°29'0 0.0
2018-Feb-24 03:30N 48°23' W 004°29'0 0.0
2018-Feb-24 03:00N 48°23' W 004°29'0 0.0
2018-Feb-24 02:30N 48°23' W 004°29'0 0.0
2018-Feb-24 02:00N 48°23' W 004°29'0 0.0
2018-Feb-24 01:30N 48°23' W 004°29'0 0.0
2018-Feb-24 01:01N 48°23' W 004°29'0 0.0
2018-Feb-24 00:31N 48°23' W 004°29'0 0.0
2018-Feb-24 00:00N 48°23' W 004°29'0 0.0
2018-Feb-23 23:30N 48°23' W 004°29'0 0.0
2018-Feb-23 23:00N 48°23' W 004°29'0 0.0
2018-Feb-23 22:30N 48°23' W 004°29'0 0.0
2018-Feb-23 22:00N 48°23' W 004°29'0 0.0
2018-Feb-23 21:30N 48°23' W 004°29'2 4.5
2018-Feb-23 21:01N 48°21' W 004°32'815.2
2018-Feb-23 20:31N 48°20' W 004°43'611.0
2018-Feb-23 20:00N 48°23' W 004°49'714.6
2018-Feb-23 19:31N 48°28' W 004°58'3 6.9
2018-Feb-23 19:01N 48°28' W 005°03'510.9
2018-Feb-23 18:30N 48°24' W 004°57'5 9.8
2018-Feb-23 18:00N 48°24' W 004°50'3 5.9
2018-Feb-23 17:30N 48°22' W 004°47'510.7
2018-Feb-23 17:01N 48°24' W 004°54'3 5.1
2018-Feb-23 16:31N 48°26' W 004°57'2 3.4
2018-Feb-23 16:00N 48°24' W 004°57'0 0.0
2018-Feb-23 15:30N 48°24' W 004°57'611.2
2018-Feb-23 15:01N 48°28' W 005°03'0 0.0
2018-Feb-23 14:31N 48°28' W 005°03'0 0.0
2018-Feb-23 14:00N 48°28' W 005°03'0 0.0
2018-Feb-23 13:30N 48°28' W 005°03'0 0.0
2018-Feb-23 13:01N 48°28' W 005°03'0 0.0
2018-Feb-23 12:31N 48°28' W 005°03'0 0.0
2018-Feb-23 12:01N 48°28' W 005°03'0 0.0
2018-Feb-23 11:31N 48°28' W 005°03'0 0.0
2018-Feb-23 11:01N 48°28' W 005°03'0 0.0
2018-Feb-23 10:31N 48°28' W 005°03'2 4.5
2018-Feb-23 10:00N 48°27' W 005°00'3 6.7
2018-Feb-23 09:31N 48°25' W 004°57'714.5
2018-Feb-23 09:01N 48°21' W 004°47'2 4.8
2018-Feb-23 08:31N 48°23' W 004°50'510.2
2018-Feb-23 08:00N 48°24' W 004°57'611.5
2018-Feb-23 07:30N 48°28' W 005°03'2 3.4
2018-Feb-23 07:00N 48°28' W 005°01'714.8
2018-Feb-23 06:31N 48°24' W 004°51'4 7.8
2018-Feb-23 06:01N 48°22' W 004°47'0 0.0
2018-Feb-23 05:31N 48°22' W 004°47'0 0.0
2018-Feb-23 05:00N 48°22' W 004°47'0 0.0
2018-Feb-23 04:30N 48°22' W 004°47'0 0.0
2018-Feb-23 04:01N 48°22' W 004°47'0 0.0
2018-Feb-23 03:30N 48°22' W 004°47'0 0.0
2018-Feb-23 03:01N 48°22' W 004°47'0 0.0
2018-Feb-23 02:31N 48°22' W 004°47'0 0.0
2018-Feb-23 02:01N 48°22' W 004°47'0 0.0
2018-Feb-23 01:30N 48°22' W 004°47'0 0.0
2018-Feb-23 01:01N 48°22' W 004°47'0 0.0
2018-Feb-23 00:31N 48°22' W 004°47'0 0.0
2018-Feb-23 00:00N 48°22' W 004°47'0 0.0
2018-Feb-22 23:31N 48°22' W 004°47'0 0.0
2018-Feb-22 23:00N 48°22' W 004°47'0 0.0
2018-Feb-22 22:31N 48°22' W 004°47'0 0.0
2018-Feb-22 22:01N 48°22' W 004°47'0 0.0
2018-Feb-22 21:31N 48°22' W 004°47'0 0.0
2018-Feb-22 21:01N 48°22' W 004°47'0 0.0
2018-Feb-22 20:31N 48°22' W 004°47'0 0.0
2018-Feb-22 20:00N 48°22' W 004°47'0 0.0
2018-Feb-22 19:31N 48°22' W 004°47'0 0.0
2018-Feb-22 19:01N 48°22' W 004°47'0 0.0
2018-Feb-22 18:31N 48°22' W 004°47'0 0.0
2018-Feb-22 18:01N 48°22' W 004°47'0 0.0
2018-Feb-22 17:31N 48°22' W 004°47'0 0.0
2018-Feb-22 17:00N 48°22' W 004°47'3 6.2
2018-Feb-22 16:30N 48°24' W 004°50'5 9.4
2018-Feb-22 16:00N 48°24' W 004°57'610.3
2018-Feb-22 15:27N 48°28' W 005°03'0 0.0
2018-Feb-22 15:00N 48°28' W 005°03'611.2
2018-Feb-22 14:31N 48°24' W 004°57'0 0.2
2018-Feb-22 14:00N 48°24' W 004°57'0 0.0
2018-Feb-22 13:31N 48°24' W 004°57'0 0.0
2018-Feb-22 13:01N 48°24' W 004°57'4 7.1
2018-Feb-22 12:30N 48°27' W 005°00'2 4.6
2018-Feb-22 12:00N 48°28' W 005°03'0 0.0
2018-Feb-22 11:30N 48°28' W 005°03'0 0.0
2018-Feb-22 11:00N 48°28' W 005°03'0 0.0
2018-Feb-22 10:30N 48°28' W 005°03'1 1.3
2018-Feb-22 10:01N 48°28' W 005°02'510.1
2018-Feb-22 09:30N 48°24' W 004°57'510.7
2018-Feb-22 09:00N 48°23' W 004°50'2 4.9
2018-Feb-22 08:30N 48°22' W 004°47'511.0
2018-Feb-22 08:01N 48°18' W 004°40'714.5
2018-Feb-22 07:31N 48°22' W 004°30'1 2.9
2018-Feb-22 07:01N 48°23' W 004°29'0 0.0
2018-Feb-22 06:30N 48°23' W 004°29'0 0.0
2018-Feb-22 06:00N 48°23' W 004°29'0 0.0
2018-Feb-22 05:31N 48°23' W 004°29'0 0.0
2018-Feb-22 05:01N 48°23' W 004°29'0 0.0
2018-Feb-22 04:31N 48°23' W 004°29'0 0.0
2018-Feb-22 04:00N 48°23' W 004°29'0 0.0
2018-Feb-22 03:31N 48°23' W 004°29'0 0.0
2018-Feb-22 03:00N 48°23' W 004°29'0 0.0
2018-Feb-22 02:31N 48°23' W 004°29'0 0.0
2018-Feb-22 02:01N 48°23' W 004°29'0 0.0
2018-Feb-22 01:31N 48°23' W 004°29'0 0.0
2018-Feb-22 01:00N 48°23' W 004°29'0 0.0
2018-Feb-22 00:31N 48°23' W 004°29'0 0.0
2018-Feb-22 00:01N 48°23' W 004°29'0 0.0
2018-Feb-21 23:30N 48°23' W 004°29'0 0.0
2018-Feb-21 23:01N 48°23' W 004°29'0 0.0
2018-Feb-21 22:30N 48°23' W 004°29'0 0.0
2018-Feb-21 22:00N 48°23' W 004°29'0 0.0
2018-Feb-21 21:31N 48°23' W 004°29'0 0.0
2018-Feb-21 21:01N 48°23' W 004°29'0 0.0
2018-Feb-21 20:30N 48°23' W 004°29'0 0.0
2018-Feb-21 20:00N 48°23' W 004°29'0 0.0
2018-Feb-21 19:30N 48°23' W 004°29'0 0.0
2018-Feb-21 19:00N 48°23' W 004°29'0 0.0
2018-Feb-21 18:31N 48°23' W 004°29'0 0.0
2018-Feb-21 18:01N 48°23' W 004°29'0 0.0
2018-Feb-21 17:31N 48°23' W 004°29'0 0.0
2018-Feb-21 17:01N 48°23' W 004°29'0 0.0
2018-Feb-21 16:31N 48°23' W 004°29'0 0.0
2018-Feb-21 16:01N 48°23' W 004°29'0 0.0
2018-Feb-21 15:30N 48°23' W 004°29'0 0.0
2018-Feb-21 15:00N 48°23' W 004°29'0 0.0
2018-Feb-21 14:31N 48°23' W 004°29'0 0.0
2018-Feb-21 14:01N 48°23' W 004°29'0 0.0
2018-Feb-21 13:31N 48°23' W 004°29'3 5.5
2018-Feb-21 13:01N 48°21' W 004°33'714.1
2018-Feb-21 12:30N 48°20' W 004°43'3 6.7
2018-Feb-21 12:01N 48°22' W 004°47'713.1
2018-Feb-21 11:31N 48°24' W 004°56'3 6.4
2018-Feb-21 11:00N 48°27' W 004°59'3 6.1
2018-Feb-21 10:30N 48°28' W 005°03'1 1.8
2018-Feb-21 10:01N 48°28' W 005°02'510.0
2018-Feb-21 09:30N 48°24' W 004°57'511.0
2018-Feb-21 09:00N 48°23' W 004°49'2 4.5
2018-Feb-21 08:30N 48°22' W 004°47'4 8.0
2018-Feb-21 08:00N 48°20' W 004°42'815.2
2018-Feb-21 07:31N 48°22' W 004°31'2 3.1
2018-Feb-21 07:00N 48°23' W 004°29'0 0.0
2018-Feb-21 06:31N 48°23' W 004°29'0 0.0
2018-Feb-21 06:00N 48°23' W 004°29'0 0.0
2018-Feb-21 05:30N 48°23' W 004°29'0 0.0
2018-Feb-21 05:00N 48°23' W 004°29'0 0.0
2018-Feb-21 04:30N 48°23' W 004°29'0 0.0
2018-Feb-21 04:00N 48°23' W 004°29'0 0.0
2018-Feb-21 03:30N 48°23' W 004°29'0 0.0
2018-Feb-21 03:00N 48°23' W 004°29'0 0.0
2018-Feb-21 02:30N 48°23' W 004°29'0 0.0
2018-Feb-21 02:00N 48°23' W 004°29'0 0.0
2018-Feb-21 01:30N 48°23' W 004°29'0 0.0
2018-Feb-21 01:01N 48°23' W 004°29'0 0.0
2018-Feb-21 00:31N 48°23' W 004°29'0 0.0
2018-Feb-21 00:00N 48°23' W 004°29'0 0.0
2018-Feb-20 23:30N 48°23' W 004°29'0 0.0
2018-Feb-20 23:00N 48°23' W 004°29'0 0.0
2018-Feb-20 22:30N 48°23' W 004°29'0 0.0
2018-Feb-20 22:00N 48°23' W 004°29'0 0.0
2018-Feb-20 21:30N 48°23' W 004°29'0 0.0
2018-Feb-20 21:00N 48°23' W 004°29'0 0.0
2018-Feb-20 20:30N 48°23' W 004°29'0 0.0
2018-Feb-20 20:00N 48°23' W 004°29'0 0.0
2018-Feb-20 19:30N 48°23' W 004°29'0 0.0
2018-Feb-20 19:00N 48°23' W 004°29'0 0.0
2018-Feb-20 18:30N 48°23' W 004°29'0 0.0
2018-Feb-20 18:01N 48°23' W 004°29'713.9
2018-Feb-20 17:30N 48°20' W 004°39'611.9
2018-Feb-20 17:01N 48°21' W 004°47'4 7.7
2018-Feb-20 16:31N 48°24' W 004°51'4 8.2
2018-Feb-20 16:00N 48°24' W 004°57'610.8
2018-Feb-20 15:29N 48°28' W 005°03'0 0.0
2018-Feb-20 15:00N 48°28' W 005°03'0 0.0
2018-Feb-20 14:29N 48°28' W 005°03'0 0.0
2018-Feb-20 13:57N 48°28' W 005°03'0 0.0
2018-Feb-20 13:29N 48°28' W 005°03'0 0.0
2018-Feb-20 12:55N 48°28' W 005°03'0 0.0
2018-Feb-20 12:30N 48°28' W 005°03'0 0.0
2018-Feb-20 12:00N 48°28' W 005°03'0 0.0
2018-Feb-20 11:29N 48°28' W 005°03'0 0.0
2018-Feb-20 10:51N 48°28' W 005°03'0 0.0
2018-Feb-20 10:30N 48°28' W 005°03'2 3.4
2018-Feb-20 10:00N 48°28' W 005°01'4 8.3
2018-Feb-20 09:29N 48°24' W 004°57'510.7
2018-Feb-20 09:00N 48°23' W 004°50'3 5.2
2018-Feb-20 08:31N 48°22' W 004°47'4 7.3
2018-Feb-20 08:00N 48°20' W 004°42'815.4
2018-Feb-20 07:31N 48°21' W 004°31'2 3.8
2018-Feb-20 07:00N 48°23' W 004°29'0 0.0
2018-Feb-20 06:30N 48°23' W 004°29'0 0.0
2018-Feb-20 06:00N 48°23' W 004°29'0 0.0
2018-Feb-20 05:30N 48°23' W 004°29'0 0.0
2018-Feb-20 05:00N 48°23' W 004°29'0 0.0
2018-Feb-20 04:30N 48°23' W 004°29'0 0.0
2018-Feb-20 04:01N 48°23' W 004°29'0 0.0
2018-Feb-20 03:30N 48°23' W 004°29'0 0.0
2018-Feb-20 03:00N 48°23' W 004°29'0 0.0
2018-Feb-20 02:30N 48°23' W 004°29'0 0.0
2018-Feb-20 02:00N 48°23' W 004°29'0 0.0
2018-Feb-20 01:30N 48°23' W 004°29'0 0.0
2018-Feb-20 01:00N 48°23' W 004°29'0 0.0
2018-Feb-20 00:31N 48°23' W 004°29'0 0.0
2018-Feb-20 00:01N 48°23' W 004°29'0 0.0
2018-Feb-19 23:30N 48°23' W 004°29'0 0.0
2018-Feb-19 23:01N 48°23' W 004°29'0 0.0
2018-Feb-19 22:31N 48°23' W 004°29'0 0.0
2018-Feb-19 22:00N 48°23' W 004°29'0 0.0
2018-Feb-19 21:30N 48°23' W 004°29'0 0.0
2018-Feb-19 21:01N 48°23' W 004°29'0 0.0
2018-Feb-19 20:31N 48°23' W 004°29'0 0.0
2018-Feb-19 20:00N 48°23' W 004°29'0 0.0
2018-Feb-19 19:31N 48°23' W 004°29'0 0.0
2018-Feb-19 19:00N 48°23' W 004°29'0 0.0
2018-Feb-19 18:30N 48°23' W 004°29'0 0.0
2018-Feb-19 18:00N 48°23' W 004°29'612.1
2018-Feb-19 17:30N 48°20' W 004°37'713.4
2018-Feb-19 17:00N 48°21' W 004°47'4 7.6
2018-Feb-19 16:30N 48°24' W 004°50'5 9.2
2018-Feb-19 16:00N 48°24' W 004°57'611.2
2018-Feb-19 15:30N 48°28' W 005°03'0 0.0
2018-Feb-19 14:59N 48°28' W 005°03'0 0.0
2018-Feb-19 14:31N 48°28' W 005°03'0 0.0
2018-Feb-19 14:00N 48°28' W 005°03'0 0.0
2018-Feb-19 13:30N 48°28' W 005°03'0 0.0
2018-Feb-19 13:00N 48°28' W 005°03'0 0.0
2018-Feb-19 12:30N 48°28' W 005°03'0 0.0
2018-Feb-19 11:59N 48°28' W 005°03'0 0.0
2018-Feb-19 11:30N 48°28' W 005°03'0 0.0
2018-Feb-19 11:00N 48°28' W 005°03'0 0.0
2018-Feb-19 10:30N 48°28' W 005°03'1 2.5
2018-Feb-19 10:00N 48°28' W 005°01'5 9.7
2018-Feb-19 09:31N 48°24' W 004°57'510.5
2018-Feb-19 09:00N 48°23' W 004°50'2 4.9
2018-Feb-19 08:30N 48°22' W 004°47'4 7.3
2018-Feb-19 08:00N 48°20' W 004°42'816.5
2018-Feb-19 07:30N 48°22' W 004°30'1 2.7
2018-Feb-19 07:01N 48°23' W 004°29'0 0.0
2018-Feb-19 06:30N 48°23' W 004°29'0 0.0
2018-Feb-19 06:01N 48°23' W 004°29'0 0.0
2018-Feb-19 05:31N 48°23' W 004°29'0 0.0
2018-Feb-19 05:01N 48°23' W 004°29'0 0.0
2018-Feb-19 04:30N 48°23' W 004°29'0 0.0
2018-Feb-19 04:00N 48°23' W 004°29'0 0.0
2018-Feb-19 03:30N 48°23' W 004°29'0 0.0
2018-Feb-19 03:00N 48°23' W 004°29'0 0.0
2018-Feb-19 02:30N 48°23' W 004°29'0 0.0
2018-Feb-19 02:00N 48°23' W 004°29'0 0.0
2018-Feb-19 01:30N 48°23' W 004°29'0 0.0
2018-Feb-19 01:00N 48°23' W 004°29'0 0.0
2018-Feb-19 00:30N 48°23' W 004°29'0 0.0
2018-Feb-19 00:00N 48°23' W 004°29'0 0.0
2018-Feb-18 23:30N 48°23' W 004°29'0 0.0
2018-Feb-18 23:00N 48°23' W 004°29'0 0.0
2018-Feb-18 22:30N 48°23' W 004°29'0 0.0
2018-Feb-18 22:00N 48°23' W 004°29'0 0.0
2018-Feb-18 21:30N 48°23' W 004°29'0 0.0
2018-Feb-18 21:00N 48°23' W 004°29'0 0.0
2018-Feb-18 20:30N 48°23' W 004°29'0 0.0
2018-Feb-18 20:00N 48°23' W 004°29'0 0.0
2018-Feb-18 19:30N 48°23' W 004°29'0 0.0
2018-Feb-18 19:00N 48°23' W 004°29'4 8.5
2018-Feb-18 18:31N 48°21' W 004°35'815.4
2018-Feb-18 18:00N 48°19' W 004°46'4 8.2
2018-Feb-18 17:30N 48°23' W 004°49'611.5
2018-Feb-18 17:00N 48°24' W 004°57'611.1
2018-Feb-18 16:30N 48°28' W 005°03'1 1.5
2018-Feb-18 16:00N 48°28' W 005°02'510.1
2018-Feb-18 15:30N 48°24' W 004°57'612.8
2018-Feb-18 15:00N 48°22' W 004°48'1 2.2
2018-Feb-18 14:30N 48°22' W 004°47'0 0.0
2018-Feb-18 14:00N 48°22' W 004°47'0 0.0
2018-Feb-18 13:30N 48°22' W 004°47'0 0.0
2018-Feb-18 13:01N 48°22' W 004°47'0 0.0
2018-Feb-18 12:30N 48°22' W 004°47'0 0.0
2018-Feb-18 12:00N 48°22' W 004°47'2 4.2
2018-Feb-18 11:30N 48°23' W 004°49'611.6
2018-Feb-18 11:00N 48°24' W 004°58'510.8
2018-Feb-18 10:30N 48°28' W 005°03'0 0.3
2018-Feb-18 10:00N 48°28' W 005°03'510.9
2018-Feb-18 09:30N 48°24' W 004°57'510.6
2018-Feb-18 09:00N 48°23' W 004°50'3 4.9
2018-Feb-18 08:30N 48°22' W 004°47'5 9.4
2018-Feb-18 08:01N 48°19' W 004°41'815.0
2018-Feb-18 07:30N 48°21' W 004°31'2 4.1
2018-Feb-18 07:00N 48°23' W 004°29'0 0.0
2018-Feb-18 06:30N 48°23' W 004°29'0 0.0
2018-Feb-18 06:00N 48°23' W 004°29'0 0.0
2018-Feb-18 05:30N 48°23' W 004°29'0 0.0
2018-Feb-18 05:00N 48°23' W 004°29'0 0.0
2018-Feb-18 04:30N 48°23' W 004°29'0 0.0
2018-Feb-18 04:00N 48°23' W 004°29'0 0.0
2018-Feb-18 03:31N 48°23' W 004°29'0 0.0
2018-Feb-18 03:00N 48°23' W 004°29'0 0.0
2018-Feb-18 02:30N 48°23' W 004°29'0 0.0
2018-Feb-18 02:00N 48°23' W 004°29'0 0.0
2018-Feb-18 01:30N 48°23' W 004°29'0 0.0
2018-Feb-18 01:01N 48°23' W 004°29'0 0.0
2018-Feb-18 00:30N 48°23' W 004°29'0 0.0
2018-Feb-18 00:01N 48°23' W 004°29'0 0.0
2018-Feb-17 23:30N 48°23' W 004°29'0 0.0
2018-Feb-17 23:00N 48°23' W 004°29'0 0.0
2018-Feb-17 22:30N 48°23' W 004°29'0 0.0
2018-Feb-17 22:01N 48°23' W 004°29'0 0.0
2018-Feb-17 21:30N 48°23' W 004°29'0 0.0
2018-Feb-17 21:00N 48°23' W 004°29'0 0.0
2018-Feb-17 20:31N 48°23' W 004°29'0 0.0
2018-Feb-17 20:00N 48°23' W 004°29'0 0.0
2018-Feb-17 19:31N 48°23' W 004°29'0 0.0
2018-Feb-17 19:00N 48°23' W 004°29'0 0.0
2018-Feb-17 18:30N 48°23' W 004°29'0 0.0
2018-Feb-17 18:00N 48°23' W 004°29'3 6.8
2018-Feb-17 17:31N 48°21' W 004°33'815.6
2018-Feb-17 17:01N 48°19' W 004°45'4 7.6
2018-Feb-17 16:30N 48°22' W 004°49'611.9
2018-Feb-17 16:00N 48°24' W 004°57'611.3
2018-Feb-17 15:31N 48°28' W 005°03'0 0.0
2018-Feb-17 15:00N 48°28' W 005°03'3 7.1
2018-Feb-17 14:30N 48°27' W 004°59'3 5.7
2018-Feb-17 14:01N 48°25' W 004°56'713.1
2018-Feb-17 13:30N 48°22' W 004°47'0 0.0
2018-Feb-17 13:00N 48°22' W 004°47'0 0.0
2018-Feb-17 12:31N 48°22' W 004°47'0 0.0
2018-Feb-17 12:00N 48°22' W 004°47'611.6
2018-Feb-17 11:31N 48°24' W 004°55'4 8.3
2018-Feb-17 11:00N 48°27' W 004°59'3 5.3
2018-Feb-17 10:28N 48°28' W 005°03'0 0.6
2018-Feb-17 10:00N 48°28' W 005°03'510.7
2018-Feb-17 09:30N 48°24' W 004°57'510.4
2018-Feb-17 09:00N 48°23' W 004°50'3 4.8
2018-Feb-17 08:29N 48°22' W 004°47'4 7.7
2018-Feb-17 08:01N 48°20' W 004°42'816.4
2018-Feb-17 07:31N 48°22' W 004°30'1 2.9
2018-Feb-17 07:00N 48°23' W 004°29'0 0.0
2018-Feb-17 06:30N 48°23' W 004°29'0 0.0
2018-Feb-17 06:00N 48°23' W 004°29'0 0.0
2018-Feb-17 05:31N 48°23' W 004°29'0 0.0
2018-Feb-17 05:00N 48°23' W 004°29'0 0.0
2018-Feb-17 04:30N 48°23' W 004°29'0 0.0
2018-Feb-17 04:00N 48°23' W 004°29'0 0.0
2018-Feb-17 03:30N 48°23' W 004°29'0 0.0
2018-Feb-17 03:00N 48°23' W 004°29'0 0.0
2018-Feb-17 02:30N 48°23' W 004°29'0 0.0
2018-Feb-17 02:00N 48°23' W 004°29'0 0.0
2018-Feb-17 01:30N 48°23' W 004°29'0 0.0
2018-Feb-17 01:00N 48°23' W 004°29'0 0.0
2018-Feb-17 00:30N 48°23' W 004°29'0 0.0
2018-Feb-17 00:00N 48°23' W 004°29'0 0.0
2018-Feb-16 23:31N 48°23' W 004°29'0 0.0
2018-Feb-16 23:00N 48°23' W 004°29'0 0.0
2018-Feb-16 22:31N 48°23' W 004°29'0 0.0
2018-Feb-16 22:00N 48°23' W 004°29'0 0.0
2018-Feb-16 21:30N 48°23' W 004°29'0 0.0
2018-Feb-16 21:00N 48°23' W 004°29'0 0.0
2018-Feb-16 20:30N 48°23' W 004°29'0 0.0
2018-Feb-16 20:00N 48°23' W 004°29'0 0.0
2018-Feb-16 19:30N 48°23' W 004°29'0 0.0
2018-Feb-16 19:00N 48°23' W 004°29'4 7.7
2018-Feb-16 18:31N 48°21' W 004°34'713.9
2018-Feb-16 18:01N 48°19' W 004°44'814.8
2018-Feb-16 17:30N 48°25' W 004°52'714.5
2018-Feb-16 17:01N 48°28' W 005°02'1 2.9
2018-Feb-16 16:30N 48°27' W 004°60'4 7.3
2018-Feb-16 16:00N 48°25' W 004°56'713.7
2018-Feb-16 15:31N 48°22' W 004°47'2 4.3
2018-Feb-16 15:00N 48°22' W 004°50'510.6
2018-Feb-16 14:30N 48°24' W 004°57'611.1
2018-Feb-16 14:00N 48°28' W 005°03'0 0.2
2018-Feb-16 13:31N 48°28' W 005°03'0 0.0
2018-Feb-16 13:00N 48°28' W 005°03'0 0.0
2018-Feb-16 12:30N 48°28' W 005°03'0 0.0
2018-Feb-16 12:00N 48°28' W 005°03'0 0.0
2018-Feb-16 11:30N 48°28' W 005°03'0 0.0
2018-Feb-16 11:00N 48°28' W 005°03'0 0.0
2018-Feb-16 10:30N 48°28' W 005°03'2 4.4
2018-Feb-16 10:00N 48°27' W 005°00'5 9.1
2018-Feb-16 09:31N 48°24' W 004°55'612.3
2018-Feb-16 09:01N 48°22' W 004°47'4 8.4
2018-Feb-16 08:30N 48°24' W 004°52'4 7.5
2018-Feb-16 08:01N 48°25' W 004°57'510.3
2018-Feb-16 07:31N 48°28' W 005°03'0 0.0
2018-Feb-16 07:01N 48°28' W 005°03'714.0
2018-Feb-16 06:30N 48°26' W 004°53'713.1
2018-Feb-16 06:01N 48°21' W 004°47'612.8
2018-Feb-16 05:31N 48°20' W 004°38'713.2
2018-Feb-16 05:00N 48°23' W 004°29'0 0.0
2018-Feb-16 04:30N 48°23' W 004°29'0 0.0
2018-Feb-16 04:00N 48°23' W 004°29'0 0.0
2018-Feb-16 03:30N 48°23' W 004°29'0 0.0
2018-Feb-16 03:01N 48°23' W 004°29'0 0.0
2018-Feb-16 02:30N 48°23' W 004°29'0 0.0
2018-Feb-16 02:00N 48°23' W 004°29'0 0.0
2018-Feb-16 01:30N 48°23' W 004°29'0 0.0
2018-Feb-16 01:01N 48°23' W 004°29'0 0.0
2018-Feb-16 00:31N 48°23' W 004°29'0 0.0
2018-Feb-16 00:00N 48°23' W 004°29'0 0.0
2018-Feb-15 23:30N 48°23' W 004°29'0 0.0
2018-Feb-15 23:00N 48°23' W 004°29'0 0.0
2018-Feb-15 22:31N 48°23' W 004°29'0 0.0
2018-Feb-15 22:00N 48°23' W 004°29'0 0.0
2018-Feb-15 21:30N 48°23' W 004°29'0 0.0
2018-Feb-15 21:00N 48°23' W 004°29'0 0.0
2018-Feb-15 20:30N 48°23' W 004°29'0 0.0
2018-Feb-15 20:00N 48°23' W 004°29'0 0.0
2018-Feb-15 19:31N 48°23' W 004°29'0 0.0
2018-Feb-15 19:01N 48°23' W 004°29'0 0.0
2018-Feb-15 18:30N 48°23' W 004°29'2 4.0
2018-Feb-15 18:01N 48°21' W 004°31'713.4
2018-Feb-15 17:30N 48°20' W 004°41'4 8.6
2018-Feb-15 17:00N 48°22' W 004°47'510.9
2018-Feb-15 16:30N 48°24' W 004°54'1 3.0
2018-Feb-15 16:00N 48°24' W 004°56'612.3
2018-Feb-15 15:30N 48°28' W 005°03'0 0.2
2018-Feb-15 15:00N 48°28' W 005°03'0 0.0
2018-Feb-15 14:30N 48°28' W 005°03'0 0.0
2018-Feb-15 14:00N 48°28' W 005°03'0 0.0
2018-Feb-15 13:27N 48°28' W 005°03'0 0.3
2018-Feb-15 13:00N 48°28' W 005°03'0 0.0
2018-Feb-15 12:30N 48°28' W 005°03'0 0.0
2018-Feb-15 11:56N 48°28' W 005°03'0 0.0
2018-Feb-15 11:28N 48°28' W 005°03'0 0.0
2018-Feb-15 11:00N 48°28' W 005°03'0 0.0
2018-Feb-15 10:22N 48°28' W 005°03'410.0
2018-Feb-15 10:00N 48°26' W 004°59'2 4.3
2018-Feb-15 09:30N 48°24' W 004°58'510.9
2018-Feb-15 09:00N 48°23' W 004°50'3 4.8
2018-Feb-15 08:28N 48°22' W 004°47'4 8.2
2018-Feb-15 08:00N 48°20' W 004°42'816.2
2018-Feb-15 07:30N 48°22' W 004°30'1 2.6
2018-Feb-15 07:00N 48°23' W 004°29'0 0.0
2018-Feb-15 06:30N 48°23' W 004°29'0 0.0
2018-Feb-15 06:00N 48°23' W 004°29'  

Dump ship's entire track history